Terminal Aerodrome Forecast
Issued by NWS

Home | Current Version | Previous Version | Graphics & Text | Print | Product List | Glossary On
Versions: 1 2 3 4 5 6 7 8 9 10 11 12 13 14 15 16 17 18 19 20 21 22 23 24 25 26 27 28 29 30 31 32 33 34 35 36
000
FTUS43 KLOT 250413 AAD
TAFORD
TAF AMD
KORD 250413Z 2504/2606 10015KT P6SM FEW060 SCT150 WS020/15040KT
     FM250530 11015KT P6SM VCSH BKN045 OVC080 WS020/15040KT
     FM250600 16015KT 3SM -RA BR BKN010 OVC015 WS020/16050KT
     FM251200 21014KT 5SM BR VCSH BKN004 OVC015
     FM251500 24014G23KT P6SM SCT005 BKN015
     FM252200 26012KT P6SM SCT015 BKN100
     FM260200 29007KT P6SM BKN060=

USA.gov is the U.S. government's official web portal to all federal, state and local government web resources and services.